sensor_id;sensor_type;location;lat;lon;timestamp;P1;durP1;ratioP1;P2;durP2;ratioP2
71087;SDS011;58747;50.674;4.616;2023-02-08T00:00:00;24.40;;;12.63;;
71087;SDS011;58747;50.674;4.616;2023-02-08T00:02:26;19.43;;;12.23;;
71087;SDS011;58747;50.674;4.616;2023-02-08T00:04:51;20.30;;;12.53;;
71087;SDS011;58747;50.674;4.616;2023-02-08T00:07:16;25.80;;;12.43;;
71087;SDS011;58747;50.674;4.616;2023-02-08T00:09:42;20.80;;;11.23;;
71087;SDS011;58747;50.674;4.616;2023-02-08T00:12:07;18.50;;;10.60;;
71087;SDS011;58747;50.674;4.616;2023-02-08T00:14:32;21.63;;;11.70;;
71087;SDS011;58747;50.674;4.616;2023-02-08T00:16:58;23.23;;;11.63;;
71087;SDS011;58747;50.674;4.616;2023-02-08T00:19:23;21.90;;;12.52;;
71087;SDS011;58747;50.674;4.616;2023-02-08T00:21:48;18.33;;;10.60;;
71087;SDS011;58747;50.674;4.616;2023-02-08T00:24:14;20.87;;;10.67;;
71087;SDS011;58747;50.674;4.616;2023-02-08T00:26:39;22.47;;;11.87;;
71087;SDS011;58747;50.674;4.616;2023-02-08T00:29:04;22.80;;;11.13;;
71087;SDS011;58747;50.674;4.616;2023-02-08T00:31:30;20.57;;;10.43;;
71087;SDS011;58747;50.674;4.616;2023-02-08T00:33:55;21.53;;;11.67;;
71087;SDS011;58747;50.674;4.616;2023-02-08T00:36:20;25.52;;;11.25;;
71087;SDS011;58747;50.674;4.616;2023-02-08T00:38:46;19.20;;;11.18;;
71087;SDS011;58747;50.674;4.616;2023-02-08T00:41:11;15.50;;;9.77;;
71087;SDS011;58747;50.674;4.616;2023-02-08T00:43:36;21.20;;;12.33;;
71087;SDS011;58747;50.674;4.616;2023-02-08T00:46:02;20.10;;;11.17;;
71087;SDS011;58747;50.674;4.616;2023-02-08T00:48:28;21.70;;;11.48;;
71087;SDS011;58747;50.674;4.616;2023-02-08T00:51:01;22.42;;;11.98;;
71087;SDS011;58747;50.674;4.616;2023-02-08T00:53:28;20.83;;;11.23;;
71087;SDS011;58747;50.674;4.616;2023-02-08T00:55:54;23.50;;;12.52;;
71087;SDS011;58747;50.674;4.616;2023-02-08T00:58:20;23.37;;;11.33;;
71087;SDS011;58747;50.674;4.616;2023-02-08T01:00:46;22.92;;;11.27;;
71087;SDS011;58747;50.674;4.616;2023-02-08T01:03:11;21.57;;;12.07;;
71087;SDS011;58747;50.674;4.616;2023-02-08T01:05:37;23.50;;;12.67;;
71087;SDS011;58747;50.674;4.616;2023-02-08T01:08:02;22.90;;;11.93;;
71087;SDS011;58747;50.674;4.616;2023-02-08T01:10:28;19.67;;;10.55;;
71087;SDS011;58747;50.674;4.616;2023-02-08T01:12:54;21.48;;;11.35;;
71087;SDS011;58747;50.674;4.616;2023-02-08T01:15:19;27.70;;;13.30;;
71087;SDS011;58747;50.674;4.616;2023-02-08T01:17:44;27.23;;;12.47;;
71087;SDS011;58747;50.674;4.616;2023-02-08T01:20:10;23.27;;;12.40;;
71087;SDS011;58747;50.674;4.616;2023-02-08T01:22:36;22.58;;;12.20;;
71087;SDS011;58747;50.674;4.616;2023-02-08T01:25:01;29.07;;;14.00;;
71087;SDS011;58747;50.674;4.616;2023-02-08T01:27:27;23.77;;;12.60;;
71087;SDS011;58747;50.674;4.616;2023-02-08T01:29:52;24.87;;;12.50;;
71087;SDS011;58747;50.674;4.616;2023-02-08T01:32:18;22.37;;;12.23;;
71087;SDS011;58747;50.674;4.616;2023-02-08T01:34:43;24.87;;;13.10;;
71087;SDS011;58747;50.674;4.616;2023-02-08T01:37:08;23.37;;;13.67;;
71087;SDS011;58747;50.674;4.616;2023-02-08T01:39:33;27.17;;;12.50;;
71087;SDS011;58747;50.674;4.616;2023-02-08T01:41:59;25.70;;;13.70;;
71087;SDS011;58747;50.674;4.616;2023-02-08T01:47:27;21.07;;;12.17;;
71087;SDS011;58747;50.674;4.616;2023-02-08T01:49:53;20.88;;;12.60;;
71087;SDS011;58747;50.674;4.616;2023-02-08T01:52:20;24.85;;;13.10;;
71087;SDS011;58747;50.674;4.616;2023-02-08T01:54:53;25.17;;;12.50;;
71087;SDS011;58747;50.674;4.616;2023-02-08T01:57:22;23.07;;;12.27;;
71087;SDS011;58747;50.674;4.616;2023-02-08T01:59:51;24.80;;;13.45;;
71087;SDS011;58747;50.674;4.616;2023-02-08T02:02:23;23.48;;;11.68;;
71087;SDS011;58747;50.674;4.616;2023-02-08T02:04:50;23.40;;;12.88;;
71087;SDS011;58747;50.674;4.616;2023-02-08T02:07:16;22.58;;;12.55;;
71087;SDS011;58747;50.674;4.616;2023-02-08T02:09:52;25.50;;;12.53;;
71087;SDS011;58747;50.674;4.616;2023-02-08T02:12:21;25.27;;;12.63;;
71087;SDS011;58747;50.674;4.616;2023-02-08T02:14:48;27.48;;;13.05;;
71087;SDS011;58747;50.674;4.616;2023-02-08T02:17:14;24.80;;;12.33;;
71087;SDS011;58747;50.674;4.616;2023-02-08T02:19:54;23.48;;;12.88;;
71087;SDS011;58747;50.674;4.616;2023-02-08T02:22:43;21.52;;;12.18;;
71087;SDS011;58747;50.674;4.616;2023-02-08T02:34:01;24.55;;;12.63;;
71087;SDS011;58747;50.674;4.616;2023-02-08T02:44:38;24.75;;;11.93;;
71087;SDS011;58747;50.674;4.616;2023-02-08T02:47:18;22.00;;;10.75;;
71087;SDS011;58747;50.674;4.616;2023-02-08T02:49:54;22.02;;;11.43;;
71087;SDS011;58747;50.674;4.616;2023-02-08T02:52:24;21.98;;;11.27;;
71087;SDS011;58747;50.674;4.616;2023-02-08T02:54:57;22.70;;;11.27;;
71087;SDS011;58747;50.674;4.616;2023-02-08T02:57:28;22.75;;;12.90;;
71087;SDS011;58747;50.674;4.616;2023-02-08T02:59:56;21.52;;;11.88;;
71087;SDS011;58747;50.674;4.616;2023-02-08T03:02:23;18.95;;;10.82;;
71087;SDS011;58747;50.674;4.616;2023-02-08T03:04:51;19.40;;;10.18;;
71087;SDS011;58747;50.674;4.616;2023-02-08T03:21:17;20.85;;;9.73;;
71087;SDS011;58747;50.674;4.616;2023-02-08T03:23:54;20.88;;;10.25;;
71087;SDS011;58747;50.674;4.616;2023-02-08T03:29:17;19.13;;;9.55;;
71087;SDS011;58747;50.674;4.616;2023-02-08T03:31:58;17.38;;;9.95;;
71087;SDS011;58747;50.674;4.616;2023-02-08T03:34:45;19.17;;;9.60;;
71087;SDS011;58747;50.674;4.616;2023-02-08T03:37:18;22.27;;;11.07;;
71087;SDS011;58747;50.674;4.616;2023-02-08T03:39:47;20.60;;;10.23;;
71087;SDS011;58747;50.674;4.616;2023-02-08T03:42:18;22.50;;;11.82;;
71087;SDS011;58747;50.674;4.616;2023-02-08T03:44:50;18.77;;;10.50;;
71087;SDS011;58747;50.674;4.616;2023-02-08T03:47:31;21.42;;;10.05;;
71087;SDS011;58747;50.674;4.616;2023-02-08T03:50:00;21.08;;;10.07;;
71087;SDS011;58747;50.674;4.616;2023-02-08T03:52:30;19.63;;;9.47;;
71087;SDS011;58747;50.674;4.616;2023-02-08T03:54:57;21.10;;;9.43;;
71087;SDS011;58747;50.674;4.616;2023-02-08T03:57:29;18.98;;;10.15;;
71087;SDS011;58747;50.674;4.616;2023-02-08T03:59:59;20.48;;;10.27;;
71087;SDS011;58747;50.674;4.616;2023-02-08T04:02:28;18.20;;;10.65;;
71087;SDS011;58747;50.674;4.616;2023-02-08T04:04:57;17.77;;;10.33;;
71087;SDS011;58747;50.674;4.616;2023-02-08T04:07:24;20.92;;;10.80;;
71087;SDS011;58747;50.674;4.616;2023-02-08T04:09:49;23.67;;;11.07;;
71087;SDS011;58747;50.674;4.616;2023-02-08T04:12:15;19.87;;;10.70;;
71087;SDS011;58747;50.674;4.616;2023-02-08T04:14:40;20.38;;;10.73;;
71087;SDS011;58747;50.674;4.616;2023-02-08T04:17:05;24.10;;;10.83;;
71087;SDS011;58747;50.674;4.616;2023-02-08T04:19:31;19.77;;;11.27;;
71087;SDS011;58747;50.674;4.616;2023-02-08T04:21:56;19.27;;;10.17;;
71087;SDS011;58747;50.674;4.616;2023-02-08T04:24:22;24.33;;;11.23;;
71087;SDS011;58747;50.674;4.616;2023-02-08T04:26:47;20.83;;;11.30;;
71087;SDS011;58747;50.674;4.616;2023-02-08T04:29:12;22.77;;;11.97;;
71087;SDS011;58747;50.674;4.616;2023-02-08T04:31:38;20.33;;;11.00;;
71087;SDS011;58747;50.674;4.616;2023-02-08T04:34:03;22.07;;;10.43;;
71087;SDS011;58747;50.674;4.616;2023-02-08T04:36:29;20.87;;;10.87;;
71087;SDS011;58747;50.674;4.616;2023-02-08T04:38:54;24.67;;;11.43;;
71087;SDS011;58747;50.674;4.616;2023-02-08T04:41:19;21.17;;;11.13;;
71087;SDS011;58747;50.674;4.616;2023-02-08T04:43:45;24.80;;;11.15;;
71087;SDS011;58747;50.674;4.616;2023-02-08T04:46:10;21.50;;;11.63;;
71087;SDS011;58747;50.674;4.616;2023-02-08T04:48:36;20.03;;;10.40;;
71087;SDS011;58747;50.674;4.616;2023-02-08T04:51:01;21.10;;;11.13;;
71087;SDS011;58747;50.674;4.616;2023-02-08T04:53:27;19.13;;;10.23;;
71087;SDS011;58747;50.674;4.616;2023-02-08T04:55:52;21.50;;;11.20;;
71087;SDS011;58747;50.674;4.616;2023-02-08T04:58:17;18.17;;;9.27;;
71087;SDS011;58747;50.674;4.616;2023-02-08T05:00:43;20.97;;;10.87;;
71087;SDS011;58747;50.674;4.616;2023-02-08T05:03:09;21.17;;;12.23;;
71087;SDS011;58747;50.674;4.616;2023-02-08T05:05:34;17.30;;;9.77;;
71087;SDS011;58747;50.674;4.616;2023-02-08T05:07:59;21.30;;;10.83;;
71087;SDS011;58747;50.674;4.616;2023-02-08T05:10:25;20.13;;;10.48;;
71087;SDS011;58747;50.674;4.616;2023-02-08T05:12:50;19.03;;;10.00;;
71087;SDS011;58747;50.674;4.616;2023-02-08T05:15:15;20.23;;;10.17;;
71087;SDS011;58747;50.674;4.616;2023-02-08T05:17:41;21.73;;;10.93;;
71087;SDS011;58747;50.674;4.616;2023-02-08T05:20:07;17.40;;;9.90;;
71087;SDS011;58747;50.674;4.616;2023-02-08T05:22:33;16.88;;;9.07;;
71087;SDS011;58747;50.674;4.616;2023-02-08T05:24:59;15.50;;;8.83;;
71087;SDS011;58747;50.674;4.616;2023-02-08T05:27:24;15.70;;;8.95;;
71087;SDS011;58747;50.674;4.616;2023-02-08T05:29:50;20.10;;;9.80;;
71087;SDS011;58747;50.674;4.616;2023-02-08T05:32:15;16.77;;;9.77;;
71087;SDS011;58747;50.674;4.616;2023-02-08T05:34:41;17.02;;;9.25;;
71087;SDS011;58747;50.674;4.616;2023-02-08T05:37:06;16.63;;;9.43;;
71087;SDS011;58747;50.674;4.616;2023-02-08T05:39:31;14.47;;;8.50;;
71087;SDS011;58747;50.674;4.616;2023-02-08T05:41:57;18.53;;;9.40;;
71087;SDS011;58747;50.674;4.616;2023-02-08T05:44:22;17.57;;;8.80;;
71087;SDS011;58747;50.674;4.616;2023-02-08T05:46:48;20.40;;;10.00;;
71087;SDS011;58747;50.674;4.616;2023-02-08T05:49:13;17.90;;;8.53;;
71087;SDS011;58747;50.674;4.616;2023-02-08T05:51:38;18.23;;;9.18;;
71087;SDS011;58747;50.674;4.616;2023-02-08T05:54:04;16.95;;;9.25;;
71087;SDS011;58747;50.674;4.616;2023-02-08T05:56:29;16.03;;;8.40;;
71087;SDS011;58747;50.674;4.616;2023-02-08T05:58:55;15.23;;;8.50;;
71087;SDS011;58747;50.674;4.616;2023-02-08T06:01:20;14.65;;;7.72;;
71087;SDS011;58747;50.674;4.616;2023-02-08T06:03:46;15.50;;;8.17;;
71087;SDS011;58747;50.674;4.616;2023-02-08T06:06:11;14.63;;;8.93;;
71087;SDS011;58747;50.674;4.616;2023-02-08T06:08:37;15.45;;;8.45;;
71087;SDS011;58747;50.674;4.616;2023-02-08T06:11:03;15.60;;;8.73;;
71087;SDS011;58747;50.674;4.616;2023-02-08T06:13:29;16.20;;;7.93;;
71087;SDS011;58747;50.674;4.616;2023-02-08T06:15:55;13.27;;;7.90;;
71087;SDS011;58747;50.674;4.616;2023-02-08T06:18:21;16.45;;;8.75;;
71087;SDS011;58747;50.674;4.616;2023-02-08T06:20:46;18.07;;;9.47;;
71087;SDS011;58747;50.674;4.616;2023-02-08T06:23:12;18.48;;;8.43;;
71087;SDS011;58747;50.674;4.616;2023-02-08T06:25:37;15.57;;;7.97;;
71087;SDS011;58747;50.674;4.616;2023-02-08T06:28:03;12.07;;;7.63;;
71087;SDS011;58747;50.674;4.616;2023-02-08T06:30:29;13.57;;;8.15;;
71087;SDS011;58747;50.674;4.616;2023-02-08T06:32:55;10.93;;;7.35;;
71087;SDS011;58747;50.674;4.616;2023-02-08T06:35:20;13.70;;;6.23;;
71087;SDS011;58747;50.674;4.616;2023-02-08T06:37:46;15.23;;;8.43;;
71087;SDS011;58747;50.674;4.616;2023-02-08T06:40:11;13.33;;;7.30;;
71087;SDS011;58747;50.674;4.616;2023-02-08T06:42:37;12.45;;;6.57;;
71087;SDS011;58747;50.674;4.616;2023-02-08T06:45:02;15.43;;;7.80;;
71087;SDS011;58747;50.674;4.616;2023-02-08T06:47:28;14.53;;;8.17;;
71087;SDS011;58747;50.674;4.616;2023-02-08T06:49:53;16.92;;;7.45;;
71087;SDS011;58747;50.674;4.616;2023-02-08T06:52:19;12.93;;;7.47;;
71087;SDS011;58747;50.674;4.616;2023-02-08T06:54:45;12.70;;;7.38;;
71087;SDS011;58747;50.674;4.616;2023-02-08T06:57:11;10.67;;;6.20;;
71087;SDS011;58747;50.674;4.616;2023-02-08T06:59:39;14.40;;;7.65;;
71087;SDS011;58747;50.674;4.616;2023-02-08T07:02:05;15.07;;;7.35;;
71087;SDS011;58747;50.674;4.616;2023-02-08T07:04:38;12.80;;;6.30;;
71087;SDS011;58747;50.674;4.616;2023-02-08T07:07:04;15.47;;;6.83;;
71087;SDS011;58747;50.674;4.616;2023-02-08T07:09:29;13.43;;;6.67;;
71087;SDS011;58747;50.674;4.616;2023-02-08T07:11:57;13.93;;;8.23;;
71087;SDS011;58747;50.674;4.616;2023-02-08T07:14:22;11.67;;;6.67;;
71087;SDS011;58747;50.674;4.616;2023-02-08T07:16:48;12.00;;;6.60;;
71087;SDS011;58747;50.674;4.616;2023-02-08T07:19:13;15.00;;;6.67;;
71087;SDS011;58747;50.674;4.616;2023-02-08T07:21:38;13.00;;;7.67;;
71087;SDS011;58747;50.674;4.616;2023-02-08T07:24:04;12.73;;;7.17;;
71087;SDS011;58747;50.674;4.616;2023-02-08T07:26:29;14.18;;;7.25;;
71087;SDS011;58747;50.674;4.616;2023-02-08T07:28:54;14.10;;;7.07;;
71087;SDS011;58747;50.674;4.616;2023-02-08T07:31:20;14.43;;;6.87;;
71087;SDS011;58747;50.674;4.616;2023-02-08T07:33:45;15.83;;;6.83;;
71087;SDS011;58747;50.674;4.616;2023-02-08T07:36:10;14.10;;;7.87;;
71087;SDS011;58747;50.674;4.616;2023-02-08T07:38:36;17.93;;;7.40;;
71087;SDS011;58747;50.674;4.616;2023-02-08T07:41:03;13.93;;;7.00;;
71087;SDS011;58747;50.674;4.616;2023-02-08T07:43:34;15.30;;;8.00;;
71087;SDS011;58747;50.674;4.616;2023-02-08T07:46:10;16.80;;;7.55;;
71087;SDS011;58747;50.674;4.616;2023-02-08T07:48:44;14.15;;;7.35;;
71087;SDS011;58747;50.674;4.616;2023-02-08T07:51:09;16.48;;;7.50;;
71087;SDS011;58747;50.674;4.616;2023-02-08T07:53:35;15.85;;;7.68;;
71087;SDS011;58747;50.674;4.616;2023-02-08T07:56:01;16.02;;;7.45;;
71087;SDS011;58747;50.674;4.616;2023-02-08T07:58:27;15.23;;;7.93;;
71087;SDS011;58747;50.674;4.616;2023-02-08T08:00:52;15.10;;;7.63;;
71087;SDS011;58747;50.674;4.616;2023-02-08T08:03:18;14.60;;;6.97;;
71087;SDS011;58747;50.674;4.616;2023-02-08T08:05:44;12.90;;;7.80;;
71087;SDS011;58747;50.674;4.616;2023-02-08T08:08:09;15.70;;;6.47;;
71087;SDS011;58747;50.674;4.616;2023-02-08T08:10:35;15.50;;;6.57;;
71087;SDS011;58747;50.674;4.616;2023-02-08T08:13:01;14.50;;;7.67;;
71087;SDS011;58747;50.674;4.616;2023-02-08T08:15:26;12.20;;;6.33;;
71087;SDS011;58747;50.674;4.616;2023-02-08T08:17:52;11.90;;;6.10;;
71087;SDS011;58747;50.674;4.616;2023-02-08T08:20:18;12.18;;;6.03;;
71087;SDS011;58747;50.674;4.616;2023-02-08T08:22:43;11.73;;;5.30;;
71087;SDS011;58747;50.674;4.616;2023-02-08T08:25:09;11.47;;;5.90;;
71087;SDS011;58747;50.674;4.616;2023-02-08T08:27:34;9.82;;;5.65;;
71087;SDS011;58747;50.674;4.616;2023-02-08T08:30:00;9.03;;;5.73;;
71087;SDS011;58747;50.674;4.616;2023-02-08T08:32:26;9.15;;;5.60;;
71087;SDS011;58747;50.674;4.616;2023-02-08T08:34:52;11.63;;;5.77;;
71087;SDS011;58747;50.674;4.616;2023-02-08T08:37:17;9.47;;;5.80;;
71087;SDS011;58747;50.674;4.616;2023-02-08T08:39:42;11.25;;;5.90;;
71087;SDS011;58747;50.674;4.616;2023-02-08T08:42:08;12.02;;;5.95;;
71087;SDS011;58747;50.674;4.616;2023-02-08T08:44:33;12.23;;;6.43;;
71087;SDS011;58747;50.674;4.616;2023-02-08T08:46:59;11.53;;;6.13;;
71087;SDS011;58747;50.674;4.616;2023-02-08T08:49:26;11.07;;;6.43;;
71087;SDS011;58747;50.674;4.616;2023-02-08T08:51:53;10.27;;;6.28;;
71087;SDS011;58747;50.674;4.616;2023-02-08T08:54:18;10.63;;;5.22;;
71087;SDS011;58747;50.674;4.616;2023-02-08T08:56:44;9.43;;;5.70;;
71087;SDS011;58747;50.674;4.616;2023-02-08T08:59:10;11.70;;;6.80;;
71087;SDS011;58747;50.674;4.616;2023-02-08T09:01:35;10.47;;;6.10;;
71087;SDS011;58747;50.674;4.616;2023-02-08T09:04:01;9.00;;;5.90;;
71087;SDS011;58747;50.674;4.616;2023-02-08T09:06:26;10.80;;;5.43;;
71087;SDS011;58747;50.674;4.616;2023-02-08T09:08:52;10.07;;;5.50;;
71087;SDS011;58747;50.674;4.616;2023-02-08T09:11:17;9.70;;;6.10;;
71087;SDS011;58747;50.674;4.616;2023-02-08T09:13:43;9.23;;;6.53;;
71087;SDS011;58747;50.674;4.616;2023-02-08T09:16:09;7.07;;;4.75;;
71087;SDS011;58747;50.674;4.616;2023-02-08T09:18:38;9.73;;;5.65;;
71087;SDS011;58747;50.674;4.616;2023-02-08T09:21:07;8.90;;;5.00;;
71087;SDS011;58747;50.674;4.616;2023-02-08T09:23:35;11.75;;;5.63;;
71087;SDS011;58747;50.674;4.616;2023-02-08T09:26:05;10.77;;;5.40;;
71087;SDS011;58747;50.674;4.616;2023-02-08T09:28:32;9.70;;;5.30;;
71087;SDS011;58747;50.674;4.616;2023-02-08T09:30:57;8.63;;;4.53;;
71087;SDS011;58747;50.674;4.616;2023-02-08T09:33:25;10.40;;;5.50;;
71087;SDS011;58747;50.674;4.616;2023-02-08T09:35:51;7.63;;;4.60;;
71087;SDS011;58747;50.674;4.616;2023-02-08T09:38:16;8.97;;;4.80;;
71087;SDS011;58747;50.674;4.616;2023-02-08T09:43:12;12.98;;;4.72;;
71087;SDS011;58747;50.674;4.616;2023-02-08T09:46:04;8.15;;;4.53;;
71087;SDS011;58747;50.674;4.616;2023-02-08T09:48:35;9.35;;;4.88;;
71087;SDS011;58747;50.674;4.616;2023-02-08T09:51:03;9.85;;;4.40;;
71087;SDS011;58747;50.674;4.616;2023-02-08T09:53:42;9.82;;;5.57;;
71087;SDS011;58747;50.674;4.616;2023-02-08T09:56:14;6.97;;;4.57;;
71087;SDS011;58747;50.674;4.616;2023-02-08T09:58:48;7.25;;;4.80;;
71087;SDS011;58747;50.674;4.616;2023-02-08T10:03:59;8.95;;;5.10;;
71087;SDS011;58747;50.674;4.616;2023-02-08T10:06:29;14.07;;;4.68;;
71087;SDS011;58747;50.674;4.616;2023-02-08T10:08:55;7.03;;;5.27;;
71087;SDS011;58747;50.674;4.616;2023-02-08T10:19:45;9.32;;;4.70;;
71087;SDS011;58747;50.674;4.616;2023-02-08T10:33:17;11.38;;;4.57;;
71087;SDS011;58747;50.674;4.616;2023-02-08T10:35:58;12.65;;;5.65;;
71087;SDS011;58747;50.674;4.616;2023-02-08T10:38:30;6.55;;;4.38;;
71087;SDS011;58747;50.674;4.616;2023-02-08T10:41:00;9.05;;;4.07;;
71087;SDS011;58747;50.674;4.616;2023-02-08T10:51:27;7.78;;;3.58;;
71087;SDS011;58747;50.674;4.616;2023-02-08T10:53:53;22.77;;;6.13;;
71087;SDS011;58747;50.674;4.616;2023-02-08T10:56:30;26.20;;;6.63;;
71087;SDS011;58747;50.674;4.616;2023-02-08T10:58:59;14.32;;;5.50;;
71087;SDS011;58747;50.674;4.616;2023-02-08T11:01:28;15.40;;;5.60;;
71087;SDS011;58747;50.674;4.616;2023-02-08T11:04:05;5.88;;;4.90;;
71087;SDS011;58747;50.674;4.616;2023-02-08T11:06:36;15.07;;;6.00;;
71087;SDS011;58747;50.674;4.616;2023-02-08T11:09:03;8.73;;;5.25;;
71087;SDS011;58747;50.674;4.616;2023-02-08T11:11:36;8.75;;;5.32;;
71087;SDS011;58747;50.674;4.616;2023-02-08T11:14:04;19.63;;;5.88;;
71087;SDS011;58747;50.674;4.616;2023-02-08T11:16:33;7.05;;;4.22;;
71087;SDS011;58747;50.674;4.616;2023-02-08T11:18:59;38.77;;;7.97;;
71087;SDS011;58747;50.674;4.616;2023-02-08T11:21:33;26.05;;;6.45;;
71087;SDS011;58747;50.674;4.616;2023-02-08T11:26:41;6.10;;;5.07;;
71087;SDS011;58747;50.674;4.616;2023-02-08T11:32:32;7.30;;;5.28;;
71087;SDS011;58747;50.674;4.616;2023-02-08T11:34:44;7.60;;;6.72;;
71087;SDS011;58747;50.674;4.616;2023-02-08T11:39:56;6.90;;;6.20;;
71087;SDS011;58747;50.674;4.616;2023-02-08T11:44:50;6.53;;;5.85;;
71087;SDS011;58747;50.674;4.616;2023-02-08T11:47:22;8.32;;;7.53;;
71087;SDS011;58747;50.674;4.616;2023-02-08T11:49:53;14.30;;;7.97;;
71087;SDS011;58747;50.674;4.616;2023-02-08T11:52:26;12.02;;;7.80;;
71087;SDS011;58747;50.674;4.616;2023-02-08T11:54:54;13.20;;;7.13;;
71087;SDS011;58747;50.674;4.616;2023-02-08T12:00:24;6.35;;;5.75;;
71087;SDS011;58747;50.674;4.616;2023-02-08T12:03:02;7.38;;;6.20;;
71087;SDS011;58747;50.674;4.616;2023-02-08T12:16:21;6.63;;;5.40;;
71087;SDS011;58747;50.674;4.616;2023-02-08T12:21:56;6.77;;;5.37;;
71087;SDS011;58747;50.674;4.616;2023-02-08T12:24:33;6.50;;;4.90;;
71087;SDS011;58747;50.674;4.616;2023-02-08T12:27:14;5.60;;;4.88;;
71087;SDS011;58747;50.674;4.616;2023-02-08T12:48:25;4.93;;;4.10;;
71087;SDS011;58747;50.674;4.616;2023-02-08T12:53:54;5.30;;;4.65;;
71087;SDS011;58747;50.674;4.616;2023-02-08T12:56:27;5.83;;;4.43;;
71087;SDS011;58747;50.674;4.616;2023-02-08T12:58:57;8.02;;;4.68;;
71087;SDS011;58747;50.674;4.616;2023-02-08T13:01:25;6.45;;;5.28;;
71087;SDS011;58747;50.674;4.616;2023-02-08T13:03:59;5.63;;;4.22;;
71087;SDS011;58747;50.674;4.616;2023-02-08T13:06:31;5.38;;;4.85;;
71087;SDS011;58747;50.674;4.616;2023-02-08T13:09:44;6.13;;;4.60;;
71087;SDS011;58747;50.674;4.616;2023-02-08T13:11:58;5.78;;;4.20;;
71087;SDS011;58747;50.674;4.616;2023-02-08T13:17:23;7.45;;;4.30;;
71087;SDS011;58747;50.674;4.616;2023-02-08T13:19:56;5.78;;;3.92;;
71087;SDS011;58747;50.674;4.616;2023-02-08T13:22:28;6.53;;;4.93;;
71087;SDS011;58747;50.674;4.616;2023-02-08T13:24:55;5.97;;;5.00;;
71087;SDS011;58747;50.674;4.616;2023-02-08T13:27:21;6.47;;;5.57;;
71087;SDS011;58747;50.674;4.616;2023-02-08T13:29:48;7.60;;;4.37;;
71087;SDS011;58747;50.674;4.616;2023-02-08T13:32:34;5.63;;;3.60;;
71087;SDS011;58747;50.674;4.616;2023-02-08T13:35:06;7.38;;;5.25;;
71087;SDS011;58747;50.674;4.616;2023-02-08T13:37:35;5.13;;;4.13;;
71087;SDS011;58747;50.674;4.616;2023-02-08T13:40:35;39.60;;;8.40;;
71087;SDS011;58747;50.674;4.616;2023-02-08T13:47:56;6.95;;;5.13;;
71087;SDS011;58747;50.674;4.616;2023-02-08T13:52:59;8.48;;;5.35;;
71087;SDS011;58747;50.674;4.616;2023-02-08T13:58:04;9.70;;;5.00;;
71087;SDS011;58747;50.674;4.616;2023-02-08T14:03:21;10.67;;;4.80;;
71087;SDS011;58747;50.674;4.616;2023-02-08T14:06:02;27.50;;;6.03;;
71087;SDS011;58747;50.674;4.616;2023-02-08T14:11:16;6.90;;;3.90;;
71087;SDS011;58747;50.674;4.616;2023-02-08T14:14:12;7.15;;;4.60;;
71087;SDS011;58747;50.674;4.616;2023-02-08T14:16:43;7.03;;;4.50;;
71087;SDS011;58747;50.674;4.616;2023-02-08T14:21:42;5.38;;;4.13;;
71087;SDS011;58747;50.674;4.616;2023-02-08T14:24:26;7.13;;;4.60;;
71087;SDS011;58747;50.674;4.616;2023-02-08T14:27:08;8.48;;;4.80;;
71087;SDS011;58747;50.674;4.616;2023-02-08T14:29:41;7.57;;;5.63;;
71087;SDS011;58747;50.674;4.616;2023-02-08T14:32:07;6.47;;;3.87;;
71087;SDS011;58747;50.674;4.616;2023-02-08T14:34:33;7.55;;;4.43;;
71087;SDS011;58747;50.674;4.616;2023-02-08T14:39:42;5.32;;;3.83;;
71087;SDS011;58747;50.674;4.616;2023-02-08T14:42:10;8.90;;;5.13;;
71087;SDS011;58747;50.674;4.616;2023-02-08T14:52:40;8.18;;;4.45;;
71087;SDS011;58747;50.674;4.616;2023-02-08T14:55:12;5.97;;;4.55;;
71087;SDS011;58747;50.674;4.616;2023-02-08T14:57:42;4.13;;;3.53;;
71087;SDS011;58747;50.674;4.616;2023-02-08T15:00:18;5.60;;;3.80;;
71087;SDS011;58747;50.674;4.616;2023-02-08T15:02:46;5.05;;;4.05;;
71087;SDS011;58747;50.674;4.616;2023-02-08T15:05:23;6.85;;;4.40;;
71087;SDS011;58747;50.674;4.616;2023-02-08T15:07:54;6.33;;;3.87;;
71087;SDS011;58747;50.674;4.616;2023-02-08T15:10:22;7.25;;;4.13;;
71087;SDS011;58747;50.674;4.616;2023-02-08T15:12:53;14.23;;;4.60;;
71087;SDS011;58747;50.674;4.616;2023-02-08T15:15:24;11.20;;;5.97;;
71087;SDS011;58747;50.674;4.616;2023-02-08T15:17:52;9.07;;;5.18;;
71087;SDS011;58747;50.674;4.616;2023-02-08T15:20:20;24.73;;;5.33;;
71087;SDS011;58747;50.674;4.616;2023-02-08T15:22:47;8.95;;;5.15;;
71087;SDS011;58747;50.674;4.616;2023-02-08T15:25:19;7.07;;;4.80;;
71087;SDS011;58747;50.674;4.616;2023-02-08T15:27:48;7.07;;;4.47;;
71087;SDS011;58747;50.674;4.616;2023-02-08T15:30:26;5.68;;;4.60;;
71087;SDS011;58747;50.674;4.616;2023-02-08T15:32:57;6.70;;;3.78;;
71087;SDS011;58747;50.674;4.616;2023-02-08T15:35:24;6.57;;;3.47;;
71087;SDS011;58747;50.674;4.616;2023-02-08T15:37:51;7.97;;;4.10;;
71087;SDS011;58747;50.674;4.616;2023-02-08T15:40:25;6.05;;;3.95;;
71087;SDS011;58747;50.674;4.616;2023-02-08T15:45:31;6.15;;;3.92;;
71087;SDS011;58747;50.674;4.616;2023-02-08T15:47:56;7.53;;;4.50;;
71087;SDS011;58747;50.674;4.616;2023-02-08T15:50:23;6.78;;;4.85;;
71087;SDS011;58747;50.674;4.616;2023-02-08T15:52:58;13.82;;;4.00;;
71087;SDS011;58747;50.674;4.616;2023-02-08T15:55:27;5.85;;;4.03;;
71087;SDS011;58747;50.674;4.616;2023-02-08T15:58:16;5.93;;;4.20;;
71087;SDS011;58747;50.674;4.616;2023-02-08T16:00:54;8.20;;;4.18;;
71087;SDS011;58747;50.674;4.616;2023-02-08T16:03:22;6.72;;;4.15;;
71087;SDS011;58747;50.674;4.616;2023-02-08T16:05:48;6.28;;;3.88;;
71087;SDS011;58747;50.674;4.616;2023-02-08T16:08:23;8.90;;;5.20;;
71087;SDS011;58747;50.674;4.616;2023-02-08T16:11:13;8.00;;;4.87;;
71087;SDS011;58747;50.674;4.616;2023-02-08T16:13:48;7.55;;;5.05;;
71087;SDS011;58747;50.674;4.616;2023-02-08T16:16:18;8.95;;;4.72;;
71087;SDS011;58747;50.674;4.616;2023-02-08T16:18:59;6.47;;;4.47;;
71087;SDS011;58747;50.674;4.616;2023-02-08T16:21:35;6.78;;;4.80;;
71087;SDS011;58747;50.674;4.616;2023-02-08T16:26:43;7.97;;;4.97;;
71087;SDS011;58747;50.674;4.616;2023-02-08T16:29:23;8.05;;;5.22;;
71087;SDS011;58747;50.674;4.616;2023-02-08T16:31:56;10.02;;;6.00;;
71087;SDS011;58747;50.674;4.616;2023-02-08T16:34:25;9.60;;;5.05;;
71087;SDS011;58747;50.674;4.616;2023-02-08T16:36:51;11.13;;;5.57;;
71087;SDS011;58747;50.674;4.616;2023-02-08T16:46:50;10.45;;;6.30;;
71087;SDS011;58747;50.674;4.616;2023-02-08T16:49:16;9.63;;;5.37;;
71087;SDS011;58747;50.674;4.616;2023-02-08T16:51:41;9.93;;;6.13;;
71087;SDS011;58747;50.674;4.616;2023-02-08T16:54:19;8.80;;;6.30;;
71087;SDS011;58747;50.674;4.616;2023-02-08T16:56:46;10.27;;;6.55;;
71087;SDS011;58747;50.674;4.616;2023-02-08T16:59:17;13.25;;;6.47;;
71087;SDS011;58747;50.674;4.616;2023-02-08T17:01:43;13.47;;;6.77;;
71087;SDS011;58747;50.674;4.616;2023-02-08T17:04:10;10.63;;;6.47;;
71087;SDS011;58747;50.674;4.616;2023-02-08T17:06:36;12.83;;;8.13;;
71087;SDS011;58747;50.674;4.616;2023-02-08T17:09:07;10.80;;;6.50;;
71087;SDS011;58747;50.674;4.616;2023-02-08T17:11:36;11.35;;;6.68;;
71087;SDS011;58747;50.674;4.616;2023-02-08T17:14:04;8.90;;;5.32;;
71087;SDS011;58747;50.674;4.616;2023-02-08T17:16:38;9.88;;;6.18;;
71087;SDS011;58747;50.674;4.616;2023-02-08T17:19:04;8.57;;;5.93;;
71087;SDS011;58747;50.674;4.616;2023-02-08T17:21:37;8.63;;;5.20;;
71087;SDS011;58747;50.674;4.616;2023-02-08T17:24:03;8.67;;;5.40;;
71087;SDS011;58747;50.674;4.616;2023-02-08T17:26:31;11.13;;;6.05;;